sensor_id;sensor_type;location;lat;lon;timestamp;pressure;altitude;pressure_sealevel;temperature;humidity
10587;BME280;5341;47.606;7.576;2023-04-30T00:01:29;98938.41;;;18.39;52.03
10587;BME280;5341;47.606;7.576;2023-04-30T00:03:58;98932.38;;;18.37;51.93
10587;BME280;5341;47.606;7.576;2023-04-30T00:06:32;98934.50;;;18.35;52.11
10587;BME280;5341;47.606;7.576;2023-04-30T00:09:02;98935.78;;;18.33;52.16
10587;BME280;5341;47.606;7.576;2023-04-30T00:11:32;98931.44;;;18.32;52.22
10587;BME280;5341;47.606;7.576;2023-04-30T00:14:02;98929.78;;;18.31;52.24
10587;BME280;5341;47.606;7.576;2023-04-30T00:16:32;98931.03;;;18.28;52.11
10587;BME280;5341;47.606;7.576;2023-04-30T00:19:05;98926.69;;;18.27;52.20
10587;BME280;5341;47.606;7.576;2023-04-30T00:21:37;98933.38;;;18.25;51.79
10587;BME280;5341;47.606;7.576;2023-04-30T00:24:06;98932.56;;;18.24;52.25
10587;BME280;5341;47.606;7.576;2023-04-30T00:26:39;98925.50;;;18.23;52.07
10587;BME280;5341;47.606;7.576;2023-04-30T00:29:17;98921.16;;;18.22;52.14
10587;BME280;5341;47.606;7.576;2023-04-30T00:31:49;98923.25;;;18.20;52.21
10587;BME280;5341;47.606;7.576;2023-04-30T00:34:24;98919.13;;;18.18;51.96
10587;BME280;5341;47.606;7.576;2023-04-30T00:36:59;98914.75;;;18.16;52.14
10587;BME280;5341;47.606;7.576;2023-04-30T00:39:31;98920.38;;;18.15;51.94
10587;BME280;5341;47.606;7.576;2023-04-30T00:42:05;98916.25;;;18.12;52.17
10587;BME280;5341;47.606;7.576;2023-04-30T00:44:42;98906.72;;;18.10;52.04
10587;BME280;5341;47.606;7.576;2023-04-30T00:47:20;98905.91;;;18.09;52.15
10587;BME280;5341;47.606;7.576;2023-04-30T00:49:53;98906.94;;;18.08;51.94
10587;BME280;5341;47.606;7.576;2023-04-30T00:52:29;98903.66;;;18.06;52.15
10587;BME280;5341;47.606;7.576;2023-04-30T00:55:11;98903.84;;;18.05;51.89
10587;BME280;5341;47.606;7.576;2023-04-30T00:57:43;98896.78;;;18.04;52.15
10587;BME280;5341;47.606;7.576;2023-04-30T01:00:13;98891.84;;;18.01;52.04
10587;BME280;5341;47.606;7.576;2023-04-30T01:02:44;98897.47;;;17.99;52.01
10587;BME280;5341;47.606;7.576;2023-04-30T01:05:17;98893.13;;;17.98;52.09
10587;BME280;5341;47.606;7.576;2023-04-30T01:07:49;98896.06;;;17.97;52.03
10587;BME280;5341;47.606;7.576;2023-04-30T01:10:43;98890.88;;;17.95;52.01
10587;BME280;5341;47.606;7.576;2023-04-30T01:13:32;98893.00;;;17.93;52.21
10587;BME280;5341;47.606;7.576;2023-04-30T01:16:12;98883.41;;;17.91;52.05
10587;BME280;5341;47.606;7.576;2023-04-30T01:18:48;98880.94;;;17.89;52.24
10587;BME280;5341;47.606;7.576;2023-04-30T01:21:22;98887.63;;;17.86;52.17
10587;BME280;5341;47.606;7.576;2023-04-30T01:24:12;98877.88;;;17.85;52.08
10587;BME280;5341;47.606;7.576;2023-04-30T01:26:59;98877.28;;;17.83;52.00
10587;BME280;5341;47.606;7.576;2023-04-30T01:29:45;98882.09;;;17.81;52.35
10587;BME280;5341;47.606;7.576;2023-04-30T01:32:27;98878.75;;;17.79;52.12
10587;BME280;5341;47.606;7.576;2023-04-30T01:35:02;98883.56;;;17.77;52.04
10587;BME280;5341;47.606;7.576;2023-04-30T01:37:44;98878.41;;;17.76;52.27
10587;BME280;5341;47.606;7.576;2023-04-30T01:40:36;98877.81;;;17.74;52.43
10587;BME280;5341;47.606;7.576;2023-04-30T01:43:16;98880.72;;;17.72;52.15
10587;BME280;5341;47.606;7.576;2023-04-30T01:45:58;98882.84;;;17.70;52.27
10587;BME280;5341;47.606;7.576;2023-04-30T01:48:36;98881.19;;;17.69;52.03
10587;BME280;5341;47.606;7.576;2023-04-30T01:51:08;98873.25;;;17.68;52.17
10587;BME280;5341;47.606;7.576;2023-04-30T01:53:43;98880.53;;;17.67;52.45
10587;BME280;5341;47.606;7.576;2023-04-30T01:56:17;98885.34;;;17.65;52.26
10587;BME280;5341;47.606;7.576;2023-04-30T01:58:48;98883.69;;;17.64;52.12
10587;BME280;5341;47.606;7.576;2023-04-30T02:01:29;98878.28;;;17.64;52.20
10587;BME280;5341;47.606;7.576;2023-04-30T02:03:59;98880.16;;;17.64;52.49
10587;BME280;5341;47.606;7.576;2023-04-30T02:06:31;98880.41;;;17.62;52.37
10587;BME280;5341;47.606;7.576;2023-04-30T02:09:03;98878.50;;;17.63;52.30
10587;BME280;5341;47.606;7.576;2023-04-30T02:11:32;98874.16;;;17.62;52.25
10587;BME280;5341;47.606;7.576;2023-04-30T02:14:03;98878.75;;;17.61;52.38
10587;BME280;5341;47.606;7.576;2023-04-30T02:16:33;98876.03;;;17.61;52.35
10587;BME280;5341;47.606;7.576;2023-04-30T02:19:02;98876.03;;;17.61;52.14
10587;BME280;5341;47.606;7.576;2023-04-30T02:21:30;98879.56;;;17.62;52.42
10587;BME280;5341;47.606;7.576;2023-04-30T02:23:59;98884.16;;;17.61;52.44
10587;BME280;5341;47.606;7.576;2023-04-30T02:26:28;98883.31;;;17.61;52.34
10587;BME280;5341;47.606;7.576;2023-04-30T02:28:55;98875.22;;;17.61;52.32
10587;BME280;5341;47.606;7.576;2023-04-30T02:31:29;98872.75;;;17.59;52.26
10587;BME280;5341;47.606;7.576;2023-04-30T02:34:01;98869.22;;;17.58;52.63
10587;BME280;5341;47.606;7.576;2023-04-30T02:36:30;98869.22;;;17.58;52.10
10587;BME280;5341;47.606;7.576;2023-04-30T02:39:03;98867.56;;;17.57;52.64
10587;BME280;5341;47.606;7.576;2023-04-30T02:41:34;98870.25;;;17.57;52.59
10587;BME280;5341;47.606;7.576;2023-04-30T02:44:02;98874.00;;;17.56;52.65
10587;BME280;5341;47.606;7.576;2023-04-30T02:46:31;98867.75;;;17.56;52.56
10587;BME280;5341;47.606;7.576;2023-04-30T02:49:06;98866.94;;;17.55;52.60
10587;BME280;5341;47.606;7.576;2023-04-30T02:51:34;98861.53;;;17.55;52.31
10587;BME280;5341;47.606;7.576;2023-04-30T02:54:02;98875.03;;;17.55;52.46
10587;BME280;5341;47.606;7.576;2023-04-30T02:56:35;98867.97;;;17.54;52.53
10587;BME280;5341;47.606;7.576;2023-04-30T02:59:08;98870.69;;;17.54;52.35
10587;BME280;5341;47.606;7.576;2023-04-30T03:01:39;98867.97;;;17.54;52.72
10587;BME280;5341;47.606;7.576;2023-04-30T03:04:10;98860.09;;;17.53;52.48
10587;BME280;5341;47.606;7.576;2023-04-30T03:06:38;98866.56;;;17.52;52.54
10587;BME280;5341;47.606;7.576;2023-04-30T03:09:10;98865.75;;;17.51;52.50
10587;BME280;5341;47.606;7.576;2023-04-30T03:11:42;98864.91;;;17.51;52.67
10587;BME280;5341;47.606;7.576;2023-04-30T03:14:11;98862.22;;;17.51;52.46
10587;BME280;5341;47.606;7.576;2023-04-30T03:16:41;98866.78;;;17.50;52.56
10587;BME280;5341;47.606;7.576;2023-04-30T03:19:13;98867.63;;;17.51;52.80
10587;BME280;5341;47.606;7.576;2023-04-30T03:21:43;98869.50;;;17.50;52.61
10587;BME280;5341;47.606;7.576;2023-04-30T03:24:14;98876.78;;;17.50;52.65
10587;BME280;5341;47.606;7.576;2023-04-30T03:26:42;98873.25;;;17.49;52.84
10587;BME280;5341;47.606;7.576;2023-04-30T03:29:10;98871.38;;;17.50;52.66
10587;BME280;5341;47.606;7.576;2023-04-30T03:31:37;98864.31;;;17.49;52.63
10587;BME280;5341;47.606;7.576;2023-04-30T03:34:05;98866.19;;;17.48;52.79
10587;BME280;5341;47.606;7.576;2023-04-30T03:36:34;98871.59;;;17.48;52.89
10587;BME280;5341;47.606;7.576;2023-04-30T03:39:04;98862.66;;;17.48;52.84
10587;BME280;5341;47.606;7.576;2023-04-30T03:41:34;98865.38;;;17.48;52.69
10587;BME280;5341;47.606;7.576;2023-04-30T03:44:02;98867.25;;;17.47;52.84
10587;BME280;5341;47.606;7.576;2023-04-30T03:46:30;98861.84;;;17.47;52.64
10587;BME280;5341;47.606;7.576;2023-04-30T03:48:58;98866.41;;;17.47;53.01
10587;BME280;5341;47.606;7.576;2023-04-30T03:51:29;98861.25;;;17.45;53.05
10587;BME280;5341;47.606;7.576;2023-04-30T03:54:12;98870.19;;;17.46;52.81
10587;BME280;5341;47.606;7.576;2023-04-30T03:56:40;98864.13;;;17.44;53.04
10587;BME280;5341;47.606;7.576;2023-04-30T03:59:16;98869.78;;;17.42;53.29
10587;BME280;5341;47.606;7.576;2023-04-30T04:01:45;98867.06;;;17.42;52.85
10587;BME280;5341;47.606;7.576;2023-04-30T04:04:16;98862.72;;;17.41;53.15
10587;BME280;5341;47.606;7.576;2023-04-30T04:06:53;98871.88;;;17.40;52.91
10587;BME280;5341;47.606;7.576;2023-04-30T04:09:31;98869.41;;;17.39;52.90
10587;BME280;5341;47.606;7.576;2023-04-30T04:11:58;98863.19;;;17.38;52.97
10587;BME280;5341;47.606;7.576;2023-04-30T04:14:26;98869.63;;;17.37;53.09
10587;BME280;5341;47.606;7.576;2023-04-30T04:16:54;98869.63;;;17.37;53.21
10587;BME280;5341;47.606;7.576;2023-04-30T04:19:25;98867.97;;;17.36;52.96
10587;BME280;5341;47.606;7.576;2023-04-30T04:21:52;98864.22;;;17.37;53.10
10587;BME280;5341;47.606;7.576;2023-04-30T04:24:20;98868.81;;;17.37;53.28
10587;BME280;5341;47.606;7.576;2023-04-30T04:26:49;98865.28;;;17.36;53.07
10587;BME280;5341;47.606;7.576;2023-04-30T04:29:19;98864.44;;;17.36;53.07
10587;BME280;5341;47.606;7.576;2023-04-30T04:31:47;98868.22;;;17.35;53.30
10587;BME280;5341;47.606;7.576;2023-04-30T04:34:19;98869.03;;;17.35;53.34
10587;BME280;5341;47.606;7.576;2023-04-30T04:36:48;98865.50;;;17.35;53.30
10587;BME280;5341;47.606;7.576;2023-04-30T04:39:15;98870.09;;;17.34;53.37
10587;BME280;5341;47.606;7.576;2023-04-30T04:41:44;98869.25;;;17.34;53.19
10587;BME280;5341;47.606;7.576;2023-04-30T04:44:13;98871.13;;;17.33;53.49
10587;BME280;5341;47.606;7.576;2023-04-30T04:46:44;98868.44;;;17.33;53.47
10587;BME280;5341;47.606;7.576;2023-04-30T04:49:17;98864.91;;;17.33;53.48
10587;BME280;5341;47.606;7.576;2023-04-30T04:51:47;98859.50;;;17.33;53.41
10587;BME280;5341;47.606;7.576;2023-04-30T04:54:15;98859.69;;;17.31;53.42
10587;BME280;5341;47.606;7.576;2023-04-30T04:56:43;98862.41;;;17.31;53.30
10587;BME280;5341;47.606;7.576;2023-04-30T04:59:14;98861.34;;;17.32;53.45
10587;BME280;5341;47.606;7.576;2023-04-30T05:01:41;98861.56;;;17.31;53.57
10587;BME280;5341;47.606;7.576;2023-04-30T05:04:11;98858.03;;;17.30;53.40
10587;BME280;5341;47.606;7.576;2023-04-30T05:06:44;98866.16;;;17.30;53.68
10587;BME280;5341;47.606;7.576;2023-04-30T05:09:14;98864.28;;;17.31;53.46
10587;BME280;5341;47.606;7.576;2023-04-30T05:11:45;98861.81;;;17.29;53.51
10587;BME280;5341;47.606;7.576;2023-04-30T05:14:21;98857.00;;;17.31;53.68
10587;BME280;5341;47.606;7.576;2023-04-30T05:16:53;98861.56;;;17.31;53.61
10587;BME280;5341;47.606;7.576;2023-04-30T05:19:21;98856.16;;;17.31;53.59
10587;BME280;5341;47.606;7.576;2023-04-30T05:21:49;98864.28;;;17.31;53.68
10587;BME280;5341;47.606;7.576;2023-04-30T05:24:19;98867.81;;;17.31;53.67
10587;BME280;5341;47.606;7.576;2023-04-30T05:26:53;98874.03;;;17.32;53.96
10587;BME280;5341;47.606;7.576;2023-04-30T05:29:29;98864.06;;;17.32;54.01
10587;BME280;5341;47.606;7.576;2023-04-30T05:31:59;98871.13;;;17.33;54.09
10587;BME280;5341;47.606;7.576;2023-04-30T05:34:30;98864.06;;;17.32;54.03
10587;BME280;5341;47.606;7.576;2023-04-30T05:36:58;98868.44;;;17.33;54.24
10587;BME280;5341;47.606;7.576;2023-04-30T05:39:32;98866.56;;;17.34;53.97
10587;BME280;5341;47.606;7.576;2023-04-30T05:42:03;98871.75;;;17.35;53.98
10587;BME280;5341;47.606;7.576;2023-04-30T05:44:33;98876.09;;;17.36;54.25
10587;BME280;5341;47.606;7.576;2023-04-30T05:47:03;98869.03;;;17.35;54.47
10587;BME280;5341;47.606;7.576;2023-04-30T05:49:36;98859.66;;;17.38;54.04
10587;BME280;5341;47.606;7.576;2023-04-30T05:52:05;98864.81;;;17.39;54.42
10587;BME280;5341;47.606;7.576;2023-04-30T05:54:33;98861.06;;;17.40;54.35
10587;BME280;5341;47.606;7.576;2023-04-30T05:57:02;98868.94;;;17.42;54.48
10587;BME280;5341;47.606;7.576;2023-04-30T05:59:32;98876.84;;;17.43;54.34
10587;BME280;5341;47.606;7.576;2023-04-30T06:02:01;98870.19;;;17.46;54.46
10587;BME280;5341;47.606;7.576;2023-04-30T06:04:30;98874.53;;;17.47;54.10
10587;BME280;5341;47.606;7.576;2023-04-30T06:06:59;98866.19;;;17.48;54.29
10587;BME280;5341;47.606;7.576;2023-04-30T06:09:34;98873.25;;;17.49;54.26
10587;BME280;5341;47.606;7.576;2023-04-30T06:12:01;98863.25;;;17.50;54.28
10587;BME280;5341;47.606;7.576;2023-04-30T06:14:30;98865.75;;;17.51;54.32
10587;BME280;5341;47.606;7.576;2023-04-30T06:16:59;98862.56;;;17.54;54.42
10587;BME280;5341;47.606;7.576;2023-04-30T06:19:28;98864.84;;;17.57;54.31
10587;BME280;5341;47.606;7.576;2023-04-30T06:21:58;98863.81;;;17.58;54.52
10587;BME280;5341;47.606;7.576;2023-04-30T06:24:26;98855.47;;;17.60;54.65
10587;BME280;5341;47.606;7.576;2023-04-30T06:26:57;98856.66;;;17.64;54.33
10587;BME280;5341;47.606;7.576;2023-04-30T06:29:26;98858.06;;;17.67;54.42
10587;BME280;5341;47.606;7.576;2023-04-30T06:31:54;98856.03;;;17.69;54.90
10587;BME280;5341;47.606;7.576;2023-04-30T06:34:23;98864.50;;;17.72;54.66
10587;BME280;5341;47.606;7.576;2023-04-30T06:36:53;98855.09;;;17.75;54.79
10587;BME280;5341;47.606;7.576;2023-04-30T06:39:22;98859.22;;;17.77;54.94
10587;BME280;5341;47.606;7.576;2023-04-30T06:41:50;98857.75;;;17.81;54.91
10587;BME280;5341;47.606;7.576;2023-04-30T06:44:22;98852.94;;;17.83;54.98
10587;BME280;5341;47.606;7.576;2023-04-30T06:46:54;98858.09;;;17.85;54.96
10587;BME280;5341;47.606;7.576;2023-04-30T06:49:29;98863.06;;;17.88;54.71
10587;BME280;5341;47.606;7.576;2023-04-30T06:51:58;98864.94;;;17.88;55.14
10587;BME280;5341;47.606;7.576;2023-04-30T06:54:27;98862.84;;;17.90;54.94
10587;BME280;5341;47.606;7.576;2023-04-30T06:56:59;98866.97;;;17.92;55.02
10587;BME280;5341;47.606;7.576;2023-04-30T06:59:31;98862.16;;;17.94;54.81
10587;BME280;5341;47.606;7.576;2023-04-30T07:02:01;98861.13;;;17.95;55.01
10587;BME280;5341;47.606;7.576;2023-04-30T07:04:30;98857.94;;;17.98;55.19
10587;BME280;5341;47.606;7.576;2023-04-30T07:07:01;98861.47;;;17.99;55.02
10587;BME280;5341;47.606;7.576;2023-04-30T07:09:35;98853.94;;;18.01;54.91
10587;BME280;5341;47.606;7.576;2023-04-30T07:12:05;98859.97;;;18.03;55.38
10587;BME280;5341;47.606;7.576;2023-04-30T07:14:34;98860.56;;;18.05;55.48
10587;BME280;5341;47.606;7.576;2023-04-30T07:17:02;98853.06;;;18.07;55.14
10587;BME280;5341;47.606;7.576;2023-04-30T07:19:31;98858.00;;;18.10;55.07
10587;BME280;5341;47.606;7.576;2023-04-30T07:21:58;98859.66;;;18.11;55.56
10587;BME280;5341;47.606;7.576;2023-04-30T07:24:26;98869.19;;;18.13;55.55
10587;BME280;5341;47.606;7.576;2023-04-30T07:26:54;98865.44;;;18.14;55.36
10587;BME280;5341;47.606;7.576;2023-04-30T07:29:25;98867.91;;;18.16;55.63
10587;BME280;5341;47.606;7.576;2023-04-30T07:31:53;98869.34;;;18.19;55.75
10587;BME280;5341;47.606;7.576;2023-04-30T07:34:24;98861.00;;;18.20;55.68
10587;BME280;5341;47.606;7.576;2023-04-30T07:36:54;98862.41;;;18.23;55.55
10587;BME280;5341;47.606;7.576;2023-04-30T07:39:23;98865.72;;;18.25;55.79
10587;BME280;5341;47.606;7.576;2023-04-30T07:41:52;98866.06;;;18.28;55.57
10587;BME280;5341;47.606;7.576;2023-04-30T07:44:20;98869.41;;;18.30;55.74
10587;BME280;5341;47.606;7.576;2023-04-30T07:46:48;98876.22;;;18.33;55.97
10587;BME280;5341;47.606;7.576;2023-04-30T07:49:21;98878.47;;;18.36;55.79
10587;BME280;5341;47.606;7.576;2023-04-30T07:51:58;98879.06;;;18.38;55.91
10587;BME280;5341;47.606;7.576;2023-04-30T07:54:29;98874.25;;;18.40;55.37
10587;BME280;5341;47.606;7.576;2023-04-30T07:57:03;98884.63;;;18.43;55.65
10587;BME280;5341;47.606;7.576;2023-04-30T07:59:34;98876.28;;;18.44;55.69
10587;BME280;5341;47.606;7.576;2023-04-30T08:02:07;98880.41;;;18.47;55.59
10587;BME280;5341;47.606;7.576;2023-04-30T08:04:34;98882.63;;;18.50;55.66
10587;BME280;5341;47.606;7.576;2023-04-30T08:07:05;98883.84;;;18.54;55.38
10587;BME280;5341;47.606;7.576;2023-04-30T08:09:36;98887.16;;;18.56;54.87
10587;BME280;5341;47.606;7.576;2023-04-30T08:12:09;98877.50;;;18.60;54.51
10587;BME280;5341;47.606;7.576;2023-04-30T08:14:42;98880.16;;;18.67;54.82
10587;BME280;5341;47.606;7.576;2023-04-30T08:17:11;98878.38;;;18.72;54.68
10587;BME280;5341;47.606;7.576;2023-04-30T08:19:39;98877.09;;;18.75;54.42
10587;BME280;5341;47.606;7.576;2023-04-30T08:22:10;98876.16;;;18.81;54.35
10587;BME280;5341;47.606;7.576;2023-04-30T08:24:38;98880.88;;;18.86;54.18
10587;BME280;5341;47.606;7.576;2023-04-30T08:27:06;98869.13;;;18.92;54.67
10587;BME280;5341;47.606;7.576;2023-04-30T08:29:36;98871.94;;;18.97;54.05
10587;BME280;5341;47.606;7.576;2023-04-30T08:32:04;98861.00;;;19.03;55.10
10587;BME280;5341;47.606;7.576;2023-04-30T08:34:33;98863.84;;;19.09;53.83
10587;BME280;5341;47.606;7.576;2023-04-30T08:37:01;98858.41;;;19.09;53.60
10587;BME280;5341;47.606;7.576;2023-04-30T08:39:36;98858.75;;;19.12;53.29
10587;BME280;5341;47.606;7.576;2023-04-30T08:42:08;98859.13;;;19.16;53.28
10587;BME280;5341;47.606;7.576;2023-04-30T08:44:43;98853.81;;;19.21;53.56
10587;BME280;5341;47.606;7.576;2023-04-30T08:47:12;98852.28;;;19.25;53.28
10587;BME280;5341;47.606;7.576;2023-04-30T08:49:42;98855.13;;;19.30;52.98
10587;BME280;5341;47.606;7.576;2023-04-30T08:52:13;98856.53;;;19.32;52.75
10587;BME280;5341;47.606;7.576;2023-04-30T08:54:43;98854.75;;;19.38;52.89
10587;BME280;5341;47.606;7.576;2023-04-30T08:57:12;98846.75;;;19.43;52.65
10587;BME280;5341;47.606;7.576;2023-04-30T08:59:39;98849.44;;;19.43;52.26
10587;BME280;5341;47.606;7.576;2023-04-30T09:02:07;98843.78;;;19.45;52.43
10587;BME280;5341;47.606;7.576;2023-04-30T09:04:36;98852.03;;;19.50;52.54
10587;BME280;5341;47.606;7.576;2023-04-30T09:07:04;98850.28;;;19.55;52.54
10587;BME280;5341;47.606;7.576;2023-04-30T09:09:37;98844.72;;;19.62;52.79
10587;BME280;5341;47.606;7.576;2023-04-30T09:12:14;98846.75;;;19.67;52.50
10587;BME280;5341;47.606;7.576;2023-04-30T09:14:57;98846.25;;;19.70;52.19
10587;BME280;5341;47.606;7.576;2023-04-30T09:17:26;98842.47;;;19.71;52.09
10587;BME280;5341;47.606;7.576;2023-04-30T09:19:53;98843.88;;;19.73;52.97
10587;BME280;5341;47.606;7.576;2023-04-30T09:22:23;98843.19;;;19.78;52.90
10587;BME280;5341;47.606;7.576;2023-04-30T09:24:51;98829.94;;;19.81;52.12
10587;BME280;5341;47.606;7.576;2023-04-30T09:27:24;98842.09;;;19.90;52.38
10587;BME280;5341;47.606;7.576;2023-04-30T09:29:52;98834.16;;;20.01;52.20
10587;BME280;5341;47.606;7.576;2023-04-30T09:32:20;98825.97;;;20.12;52.89
10587;BME280;5341;47.606;7.576;2023-04-30T09:34:47;98824.19;;;20.35;51.71
10587;BME280;5341;47.606;7.576;2023-04-30T09:37:15;98828.69;;;20.58;50.71
10587;BME280;5341;47.606;7.576;2023-04-30T09:39:49;98824.13;;;20.75;50.09
10587;BME280;5341;47.606;7.576;2023-04-30T09:42:18;98823.22;;;20.86;49.73
10587;BME280;5341;47.606;7.576;2023-04-30T09:44:47;98822.56;;;20.96;49.34
10587;BME280;5341;47.606;7.576;2023-04-30T09:47:16;98820.94;;;21.17;48.95
10587;BME280;5341;47.606;7.576;2023-04-30T09:49:46;98830.53;;;21.36;49.29
10587;BME280;5341;47.606;7.576;2023-04-30T09:52:18;98820.09;;;21.50;49.43
10587;BME280;5341;47.606;7.576;2023-04-30T09:54:47;98814.78;;;21.60;49.46
10587;BME280;5341;47.606;7.576;2023-04-30T09:57:21;98822.28;;;21.70;48.30
10587;BME280;5341;47.606;7.576;2023-04-30T09:59:54;98809.59;;;21.80;48.29
10587;BME280;5341;47.606;7.576;2023-04-30T10:02:27;98818.22;;;21.94;48.88
10587;BME280;5341;47.606;7.576;2023-04-30T10:04:57;98813.78;;;22.10;49.06
10587;BME280;5341;47.606;7.576;2023-04-30T10:07:32;98829.16;;;22.21;49.16
10587;BME280;5341;47.606;7.576;2023-04-30T10:10:07;98815.28;;;22.22;49.39
10587;BME280;5341;47.606;7.576;2023-04-30T10:12:41;98814.00;;;22.30;48.93
10587;BME280;5341;47.606;7.576;2023-04-30T10:15:14;98806.75;;;22.41;49.18
10587;BME280;5341;47.606;7.576;2023-04-30T10:17:52;98813.03;;;22.41;48.97
10587;BME280;5341;47.606;7.576;2023-04-30T10:20:22;98798.06;;;22.44;49.10
10587;BME280;5341;47.606;7.576;2023-04-30T10:23:04;98803.78;;;22.42;48.56
10587;BME280;5341;47.606;7.576;2023-04-30T10:25:37;98801.00;;;22.37;48.27
10587;BME280;5341;47.606;7.576;2023-04-30T10:28:07;98803.16;;;22.35;49.13
10587;BME280;5341;47.606;7.576;2023-04-30T10:30:37;98797.16;;;22.33;47.24
10587;BME280;5341;47.606;7.576;2023-04-30T10:33:11;98797.44;;;22.37;46.56
10587;BME280;5341;47.606;7.576;2023-04-30T10:35:47;98793.38;;;22.39;47.15
10587;BME280;5341;47.606;7.576;2023-04-30T10:38:21;98795.59;;;22.42;48.01
10587;BME280;5341;47.606;7.576;2023-04-30T10:40:54;98794.19;;;22.40;47.75
10587;BME280;5341;47.606;7.576;2023-04-30T10:43:24;98788.19;;;22.38;46.51
10587;BME280;5341;47.606;7.576;2023-04-30T10:45:56;98788.19;;;22.38;46.22
10587;BME280;5341;47.606;7.576;2023-04-30T10:48:25;98786.03;;;22.40;47.38
10587;BME280;5341;47.606;7.576;2023-04-30T10:51:00;98784.13;;;22.40;46.43
10587;BME280;5341;47.606;7.576;2023-04-30T10:53:30;98789.63;;;22.45;46.30
10587;BME280;5341;47.606;7.576;2023-04-30T10:56:02;98775.75;;;22.47;47.62
10587;BME280;5341;47.606;7.576;2023-04-30T10:58:33;98781.47;;;22.45;47.96
10587;BME280;5341;47.606;7.576;2023-04-30T11:01:04;98772.72;;;22.43;46.83
10587;BME280;5341;47.606;7.576;2023-04-30T11:03:34;98771.56;;;22.39;45.98
10587;BME280;5341;47.606;7.576;2023-04-30T11:06:07;98773.47;;;22.39;45.60
10587;BME280;5341;47.606;7.576;2023-04-30T11:08:36;98774.78;;;22.31;45.84
10587;BME280;5341;47.606;7.576;2023-04-30T11:11:08;98777.44;;;22.26;45.62
10587;BME280;5341;47.606;7.576;2023-04-30T11:13:40;98767.63;;;22.25;47.21
10587;BME280;5341;47.606;7.576;2023-04-30T11:16:17;98763.78;;;22.21;46.69
10587;BME280;5341;47.606;7.576;2023-04-30T11:18:46;98763.72;;;22.16;46.21
10587;BME280;5341;47.606;7.576;2023-04-30T11:21:14;98764.53;;;22.16;45.74
10587;BME280;5341;47.606;7.576;2023-04-30T11:23:49;98756.47;;;22.27;45.63
10587;BME280;5341;47.606;7.576;2023-04-30T11:26:22;98760.47;;;22.46;45.82
10587;BME280;5341;47.606;7.576;2023-04-30T11:28:52;98760.31;;;22.58;46.21
10587;BME280;5341;47.606;7.576;2023-04-30T11:31:32;98761.72;;;22.65;46.93
10587;BME280;5341;47.606;7.576;2023-04-30T11:34:04;98753.53;;;22.65;47.15
10587;BME280;5341;47.606;7.576;2023-04-30T11:36:33;98751.84;;;22.59;46.24
10587;BME280;5341;47.606;7.576;2023-04-30T11:39:04;98760.00;;;22.54;46.44
10587;BME280;5341;47.606;7.576;2023-04-30T11:41:39;98759.91;;;22.44;45.21
10587;BME280;5341;47.606;7.576;2023-04-30T11:44:21;98751.91;;;22.32;45.09
10587;BME280;5341;47.606;7.576;2023-04-30T11:46:53;98756.44;;;22.21;45.29
10587;BME280;5341;47.606;7.576;2023-04-30T11:49:23;98754.72;;;22.15;46.06
10587;BME280;5341;47.606;7.576;2023-04-30T11:51:52;98748.97;;;22.12;46.07
10587;BME280;5341;47.606;7.576;2023-04-30T11:54:20;98745.13;;;22.08;46.00
10587;BME280;5341;47.606;7.576;2023-04-30T11:56:48;98745.84;;;22.03;45.79
10587;BME280;5341;47.606;7.576;2023-04-30T11:59:16;98742.84;;;22.00;45.63
10587;BME280;5341;47.606;7.576;2023-04-30T12:01:44;98739.28;;;21.99;45.61
10587;BME280;5341;47.606;7.576;2023-04-30T12:04:15;98729.78;;;22.02;46.68
10587;BME280;5341;47.606;7.576;2023-04-30T12:06:49;98737.13;;;22.01;45.96
10587;BME280;5341;47.606;7.576;2023-04-30T12:09:17;98742.88;;;22.05;45.42
10587;BME280;5341;47.606;7.576;2023-04-30T12:11:46;98748.97;;;22.12;45.32
10587;BME280;5341;47.606;7.576;2023-04-30T12:14:16;98740.88;;;22.17;45.13
10587;BME280;5341;47.606;7.576;2023-04-30T12:16:45;98734.38;;;22.23;45.43
10587;BME280;5341;47.606;7.576;2023-04-30T12:19:15;98732.28;;;22.30;44.42
10587;BME280;5341;47.606;7.576;2023-04-30T12:21:49;98722.78;;;22.38;45.16
10587;BME280;5341;47.606;7.576;2023-04-30T12:24:30;98728.56;;;22.41;44.53
10587;BME280;5341;47.606;7.576;2023-04-30T12:26:59;98728.84;;;22.45;44.34
10587;BME280;5341;47.606;7.576;2023-04-30T12:29:30;98728.31;;;22.48;45.60
10587;BME280;5341;47.606;7.576;2023-04-30T12:31:58;98720.97;;;22.48;46.15
10587;BME280;5341;47.606;7.576;2023-04-30T12:34:28;98728.31;;;22.48;46.43
10587;BME280;5341;47.606;7.576;2023-04-30T12:37:01;98727.78;;;22.46;46.45
10587;BME280;5341;47.606;7.576;2023-04-30T12:39:33;98725.84;;;22.41;45.28
10587;BME280;5341;47.606;7.576;2023-04-30T12:42:02;98732.34;;;22.40;45.23
10587;BME280;5341;47.606;7.576;2023-04-30T12:44:30;98736.16;;;22.39;46.29
10587;BME280;5341;47.606;7.576;2023-04-30T12:47:08;98736.38;;;22.33;44.61
10587;BME280;5341;47.606;7.576;2023-04-30T12:49:39;98736.09;;;22.29;45.28
10587;BME280;5341;47.606;7.576;2023-04-30T12:52:10;98725.38;;;22.22;45.47
10587;BME280;5341;47.606;7.576;2023-04-30T12:54:44;98730.00;;;22.22;46.30
10587;BME280;5341;47.606;7.576;2023-04-30T12:57:17;98722.09;;;22.20;46.54
10587;BME280;5341;47.606;7.576;2023-04-30T13:00:01;98736.53;;;22.21;46.99
10587;BME280;5341;47.606;7.576;2023-04-30T13:02:30;98737.88;;;22.18;47.43
10587;BME280;5341;47.606;7.576;2023-04-30T13:05:00;98730.81;;;22.17;47.54
10587;BME280;5341;47.606;7.576;2023-04-30T13:07:36;98735.66;;;22.15;47.41
10587;BME280;5341;47.606;7.576;2023-04-30T13:10:33;98733.19;;;22.14;47.83
10587;BME280;5341;47.606;7.576;2023-04-30T13:12:59;98726.38;;;22.11;47.04
10587;BME280;5341;47.606;7.576;2023-04-30T13:15:30;98726.34;;;22.06;45.73
10587;BME280;5341;47.606;7.576;2023-04-30T13:17:57;98731.41;;;22.03;45.18
10587;BME280;5341;47.606;7.576;2023-04-30T13:20:28;98722.69;;;22.01;45.32
10587;BME280;5341;47.606;7.576;2023-04-30T13:22:56;98721.03;;;22.00;46.49
10587;BME280;5341;47.606;7.576;2023-04-30T13:25:25;98715.03;;;21.98;45.30
10587;BME280;5341;47.606;7.576;2023-04-30T13:27:55;98706.00;;;21.92;44.77
10587;BME280;5341;47.606;7.576;2023-04-30T13:30:24;98714.47;;;21.96;45.96
10587;BME280;5341;47.606;7.576;2023-04-30T13:32:55;98703.06;;;21.99;46.88